METAR Data
IDs: Format: Raw Decoded Include TAF

Data at: 0856 UTC 03 Aug 2021

KSTS 030853Z AUTO 20005KT 9SM OVC003 12/12 A3004 RMK AO2 SLP165 T01220117 58000
KSTS 030813Z AUTO 19005KT 10SM OVC004 12/12 A3004 RMK AO2 T01220117
KSTS 030753Z AUTO 16005KT 9SM OVC003 13/12 A3004 RMK AO2 SLP167 T01280122 402720100
KSTS 030739Z AUTO 15006KT 9SM OVC003 12/12 A3004 RMK AO2 T01220117
KSTS 030728Z AUTO 15006KT 9SM BKN004 12/11 A3004 RMK AO2 T01220111
KSTS 030712Z AUTO 15004KT 10SM FEW004 12/11 A3004 RMK AO2 T01220111
KSTS 030653Z AUTO 16004KT 10SM CLR 12/11 A3004 RMK AO2 SLP167 T01220111
KSTS 030553Z AUTO 16004KT 10SM CLR 13/11 A3004 RMK AO2 SLP166 T01280111 10261 20128 53006
KSTS 030453Z AUTO 15005KT 10SM CLR 14/11 A3004 RMK AO2 SLP165 T01390111
KSTS 030353Z AUTO 16006KT 10SM CLR 16/11 A3002 RMK AO2 SLP161 T01610106
KSTS 030253Z AUTO 15008KT 10SM CLR 21/11 A3002 RMK AO2 SLP160 T02060106 55004
KSTS 030153Z 18008KT 10SM CLR 23/08 A3002 RMK AO2 SLP158 T02330078
KSTS 030053Z 15008KT 10SM SCT200 26/09 A3002 RMK AO2 SLP160 T02610089
KSTS 022353Z 16011KT 10SM CLR 26/10 A3003 RMK AO2 SLP164 T02560100 10272 20183 56014
KSTS 022253Z 17008KT 10SM SCT200 27/11 A3004 RMK AO2 SLP166 T02670106
KSTS 022153Z VRB06KT 10SM SCT250 26/12 A3005 RMK AO2 SLP170 T02560117
KSTS 022053Z 18007KT 10SM CLR 26/12 A3008 RMK AO2 SLP178 T02560117 58014
KSTS 021953Z VRB04KT 10SM CLR 23/11 A3009 RMK AO2 SLP184 T02330106
KSTS 021853Z 16004KT 10SM FEW200 20/11 A3011 RMK AO2 SLP190 T02000106
KSTS 021753Z 00000KT 10SM FEW250 19/11 A3012 RMK AO2 SLP193 T01890106 10189 20133 58004
KSTS 021653Z 00000KT 10SM FEW018 16/11 A3013 RMK AO2 SLP197 T01610106
KSTS 021553Z 32005KT 10SM OVC016 15/11 A3014 RMK AO2 SLP199 T01500106
KSTS 021453Z 00000KT 10SM OVC015 14/11 A3013 RMK AO2 SLP197 T01390106 52014
KSTS 021353Z 28004KT 10SM OVC015 14/11 A3012 RMK AO2 SLP192 T01390106
KSTS 021253Z AUTO 31004KT 10SM OVC015 13/11 A3011 RMK AO2 SLP188 T01330106
KSTS 021153Z AUTO 00000KT 10SM OVC015 13/11 A3009 RMK AO2 SLP183 T01330106 10133 20100 55001
KSTS 021053Z AUTO 00000KT 10SM OVC015 13/11 A3008 RMK AO2 SLP181 T01280111
KSTS 020953Z AUTO 00000KT 10SM OVC016 12/11 A3009 RMK AO2 SLP183 T01220111
KSTS 020853Z AUTO 00000KT 10SM OVC016 12/11 A3009 RMK AO2 SLP184 T01170106 50000
KSTS 020840Z AUTO 00000KT 10SM BKN016 11/09 A3010 RMK AO2 T01060094
KSTS 020753Z AUTO 19003KT 10SM CLR 12/10 A3010 RMK AO2 SLP187 T01170100 402440111
KSTS 020653Z AUTO 00000KT 10SM CLR 13/11 A3010 RMK AO2 SLP187 T01280106
KSTS 020553Z AUTO 19003KT 10SM CLR 13/11 A3009 RMK AO2 SLP184 T01330111 10233 20133 51013
KSTS 020453Z AUTO 18005KT 10SM CLR 14/11 A3009 RMK AO2 SLP182 T01390111
KSTS 020353Z AUTO 19007KT 10SM CLR 15/11 A3007 RMK AO2 SLP176 T01500111
KSTS 020253Z AUTO 18010KT 10SM CLR 17/12 A3006 RMK AO2 SLP171 T01720117 53005
KSTS 020153Z 18011KT 10SM FEW200 20/12 A3004 RMK AO2 SLP167 T02000117
KSTS 020053Z 18010KT 10SM FEW200 22/12 A3004 RMK AO2 SLP167 T02170117
KSTS 012353Z 18012KT 10SM FEW200 23/12 A3004 RMK AO2 SLP167 T02280122 10244 20167 58005
KSTS 012253Z 20010KT 10SM FEW200 23/12 A3005 RMK AO2 SLP169 T02330117
KSTS 012153Z 18011KT 10SM FEW250 24/12 A3005 RMK AO2 SLP169 T02440122